Time;durP1;ratioP1;P1;durP2;ratioP2;P2;SDS_P1;SDS_P2;PMS_P1;PMS_P2;Temp;Humidity;BMP_temperature;BMP_pressure;BME280_temperature;BME280_humidity;BME280_pressure;Samples;Min_cycle;Max_cycle;Signal;HPM_P1;HPM_P2
2022/01/28 00:01:58;;;;;;;2.40;1.70;;;4.40;99.90;;;;;;5076592;28;20263;-84
2022/01/28 00:04:27;;;;;;;1.77;1.67;;;4.30;99.90;;;;;;5093589;28;20283;-86
2022/01/28 00:06:54;;;;;;;2.38;1.83;;;4.30;99.90;;;;;;5096539;28;20197;-86
2022/01/28 00:09:22;;;;;;;4.75;1.85;;;4.20;99.90;;;;;;5099669;28;20210;-85
2022/01/28 00:11:49;;;;;;;2.13;1.45;;;4.20;99.90;;;;;;5079737;28;20394;-86
2022/01/28 00:14:29;;;;;;;3.42;1.55;;;4.20;99.90;;;;;;5107274;28;20191;-85
2022/01/28 00:38:45;;;;;;;1.83;1.58;;;4.20;99.90;;;;;;5109885;28;20255;-86
2022/01/28 00:41:14;;;;;;;2.35;2.03;;;4.30;99.90;;;;;;5102591;28;20206;-86
2022/01/28 00:43:42;;;;;;;1.70;1.30;;;4.30;99.90;;;;;;5101059;28;20382;-85
2022/01/28 00:46:11;;;;;;;2.10;1.90;;;4.20;99.90;;;;;;5080265;28;20196;-85
2022/01/28 00:48:39;;;;;;;1.25;1.13;;;4.00;99.90;;;;;;5112702;28;20195;-86
2022/01/28 00:51:06;;;;;;;1.40;1.30;;;3.90;99.90;;;;;;5111942;28;20271;-84
2022/01/28 00:53:33;;;;;;;3.25;1.25;;;3.60;99.90;;;;;;5104263;28;20201;-86
2022/01/28 00:56:01;;;;;;;1.58;1.35;;;3.40;99.90;;;;;;5125213;28;20229;-86
2022/01/28 00:58:29;;;;;;;4.53;1.40;;;3.30;99.90;;;;;;5120130;28;20430;-87
2022/01/28 01:00:56;;;;;;;2.67;2.15;;;3.10;99.90;;;;;;5096904;28;20191;-86
2022/01/28 01:03:24;;;;;;;5.18;1.42;;;3.00;99.90;;;;;;5072668;28;20237;-85
2022/01/28 01:05:52;;;;;;;2.08;1.60;;;3.00;99.90;;;;;;5111976;28;20206;-84
2022/01/28 01:08:19;;;;;;;2.55;1.38;;;2.90;99.90;;;;;;5089499;28;20225;-86
2022/01/28 01:10:49;;;;;;;1.30;1.10;;;2.90;99.90;;;;;;5070051;28;20198;-84
2022/01/28 01:13:17;;;;;;;2.65;2.05;;;2.90;99.90;;;;;;5087117;28;20219;-87
2022/01/28 01:15:48;;;;;;;3.22;1.33;;;2.90;99.90;;;;;;5086439;28;20187;-87
2022/01/28 01:18:22;;;;;;;1.75;1.55;;;3.00;99.90;;;;;;5092875;28;20202;-88
2022/01/28 01:20:59;;;;;;;1.40;1.20;;;3.10;99.90;;;;;;5075939;28;20208;-85
2022/01/28 01:23:31;;;;;;;1.00;1.00;;;3.30;99.90;;;;;;5085914;28;20263;-81
2022/01/28 01:28:34;;;;;;;3.03;1.10;;;3.40;99.90;;;;;;5110185;28;20207;-82
2022/01/28 01:31:05;;;;;;;2.35;1.15;;;3.40;99.90;;;;;;5103720;28;20216;-81
2022/01/28 01:33:40;;;;;;;2.30;1.50;;;3.40;99.90;;;;;;5083769;28;20205;-82
2022/01/28 01:36:08;;;;;;;2.97;2.00;;;3.50;99.90;;;;;;5100973;28;20453;-81
2022/01/28 01:38:39;;;;;;;1.65;1.25;;;3.50;99.90;;;;;;5068575;28;20536;-84
2022/01/28 01:41:13;;;;;;;2.50;2.30;;;3.50;99.90;;;;;;5109140;28;20430;-84
2022/01/28 01:44:01;;;;;;;1.83;1.73;;;3.60;99.90;;;;;;5105181;28;20253;-82
2022/01/28 01:46:42;;;;;;;3.83;1.60;;;3.70;99.90;;;;;;5107643;28;20203;-82
2022/01/28 01:52:01;;;;;;;2.58;1.65;;;3.80;99.90;;;;;;5130490;28;20284;-83
2022/01/28 01:54:37;;;;;;;1.25;1.15;;;3.90;99.90;;;;;;5096710;28;20257;-83
2022/01/28 01:57:08;;;;;;;1.85;1.65;;;3.90;99.90;;;;;;5091205;28;20493;-83
2022/01/28 01:59:37;;;;;;;3.35;1.08;;;4.00;99.90;;;;;;5126040;28;20215;-86
2022/01/28 02:02:06;;;;;;;5.18;1.67;;;4.00;99.90;;;;;;5130340;28;20200;-84
2022/01/28 02:04:34;;;;;;;6.10;3.50;;;4.00;99.90;;;;;;5130514;28;20196;-85
2022/01/28 02:07:03;;;;;;;2.00;1.20;;;4.00;99.90;;;;;;5130537;28;20200;-83
2022/01/28 02:09:31;;;;;;;2.17;0.75;;;4.00;99.90;;;;;;5109796;28;20355;-83
2022/01/28 02:11:59;;;;;;;5.65;1.25;;;4.00;99.90;;;;;;5120253;28;20264;-83
2022/01/28 02:14:26;;;;;;;2.47;1.13;;;4.20;99.90;;;;;;5099988;28;20225;-82
2022/01/28 02:16:54;;;;;;;2.55;1.10;;;4.20;99.90;;;;;;5070605;28;20228;-85
2022/01/28 02:19:22;;;;;;;2.53;0.95;;;4.30;99.90;;;;;;5117631;28;20194;-83
2022/01/28 02:21:52;;;;;;;1.90;1.05;;;4.40;99.90;;;;;;5129629;28;20219;-84
2022/01/28 02:24:29;;;;;;;2.38;0.85;;;4.50;99.90;;;;;;5130000;28;20397;-83
2022/01/28 02:26:57;;;;;;;1.80;1.00;;;4.50;99.90;;;;;;5124121;28;20192;-82
2022/01/28 02:29:28;;;;;;;7.30;1.45;;;4.60;99.90;;;;;;5103783;28;20208;-83
2022/01/28 02:31:58;;;;;;;5.57;1.50;;;4.60;99.90;;;;;;5088527;28;20221;-84
2022/01/28 02:34:26;;;;;;;1.60;1.00;;;4.60;99.90;;;;;;5071633;28;20438;-84
2022/01/28 02:36:55;;;;;;;1.58;0.93;;;4.60;99.90;;;;;;5098054;28;20218;-85
2022/01/28 02:39:23;;;;;;;2.67;1.17;;;4.60;99.90;;;;;;5100766;28;20535;-84
2022/01/28 02:41:58;;;;;;;2.30;1.15;;;4.60;99.90;;;;;;5097057;28;20197;-84
2022/01/28 02:47:07;;;;;;;6.95;1.40;;;4.50;99.90;;;;;;5100683;28;20260;-82
2022/01/28 02:49:37;;;;;;;2.10;1.50;;;4.50;99.90;;;;;;5091359;28;20220;-83
2022/01/28 02:52:06;;;;;;;2.00;1.15;;;4.50;99.90;;;;;;5094126;28;20271;-84
2022/01/28 02:54:44;;;;;;;4.43;1.50;;;4.50;99.90;;;;;;5106577;28;20198;-84
2022/01/28 02:57:15;;;;;;;1.45;1.00;;;4.50;99.90;;;;;;5109000;28;20248;-84
2022/01/28 02:59:43;;;;;;;1.15;0.93;;;4.50;99.90;;;;;;5123776;28;20258;-81
2022/01/28 03:02:11;;;;;;;1.25;0.90;;;4.40;99.90;;;;;;5079640;28;20575;-82
2022/01/28 03:04:59;;;;;;;9.68;1.50;;;4.30;99.90;;;;;;5070113;28;20432;-84
2022/01/28 03:07:27;;;;;;;0.68;0.68;;;4.30;99.90;;;;;;5115513;28;20379;-82
2022/01/28 03:12:37;;;;;;;1.73;1.38;;;4.30;99.90;;;;;;5094709;28;20213;-82
2022/01/28 03:15:07;;;;;;;4.28;1.67;;;4.20;99.90;;;;;;5089211;28;20205;-83
2022/01/28 03:22:46;;;;;;;1.98;1.35;;;4.10;99.90;;;;;;5102488;28;20402;-84
2022/01/28 03:25:16;;;;;;;8.85;1.63;;;4.10;99.90;;;;;;5089163;28;20255;-86
2022/01/28 03:27:50;;;;;;;1.60;0.90;;;4.00;99.90;;;;;;5069521;28;20351;-87
2022/01/28 03:30:19;;;;;;;3.65;1.25;;;4.00;99.90;;;;;;5083008;28;20219;-85
2022/01/28 03:32:47;;;;;;;3.25;1.25;;;3.90;99.90;;;;;;5092812;28;20239;-85
2022/01/28 03:35:28;;;;;;;1.77;1.45;;;3.90;99.90;;;;;;5102050;28;20201;-87
2022/01/28 03:38:00;;;;;;;2.72;1.50;;;3.90;99.90;;;;;;5094536;28;20255;-87
2022/01/28 03:40:35;;;;;;;2.53;1.52;;;3.90;99.90;;;;;;5095682;28;20213;-83
2022/01/28 03:43:04;;;;;;;3.40;1.60;;;3.90;99.90;;;;;;5104534;28;20218;-83
2022/01/28 03:45:32;;;;;;;4.68;1.20;;;3.90;99.90;;;;;;5069703;28;20500;-84
2022/01/28 03:48:00;;;;;;;2.60;1.75;;;3.90;99.90;;;;;;5110203;28;20197;-85
2022/01/28 03:50:32;;;;;;;3.50;1.52;;;3.90;99.90;;;;;;5098793;28;20222;-83
2022/01/28 03:53:04;;;;;;;5.55;1.33;;;3.90;99.90;;;;;;5119081;28;20207;-83
2022/01/28 03:55:32;;;;;;;3.65;2.25;;;4.00;99.90;;;;;;5087857;28;20256;-83
2022/01/28 03:58:00;;;;;;;4.13;1.83;;;3.90;99.90;;;;;;5069679;28;20292;-85
2022/01/28 04:00:30;;;;;;;5.90;1.30;;;4.00;99.90;;;;;;5098796;28;20264;-85
2022/01/28 04:03:10;;;;;;;3.72;1.50;;;4.00;99.90;;;;;;5090937;28;20232;-84
2022/01/28 04:13:49;;;;;;;0.75;0.75;;;3.90;99.90;;;;;;5101006;28;20264;-84
2022/01/28 04:18:48;;;;;;;1.25;1.15;;;3.90;99.90;;;;;;5089637;28;20267;-85
2022/01/28 04:21:15;;;;;;;2.90;1.30;;;3.90;99.90;;;;;;5097060;28;20457;-84
2022/01/28 04:23:43;;;;;;;6.50;2.95;;;3.90;99.90;;;;;;5105514;28;20279;-84
2022/01/28 04:26:16;;;;;;;4.55;2.45;;;3.90;99.90;;;;;;5094635;28;20208;-84
2022/01/28 04:28:45;;;;;;;7.15;1.80;;;3.90;99.90;;;;;;5106813;28;20268;-84
2022/01/28 04:31:12;;;;;;;1.80;1.23;;;3.90;99.90;;;;;;5090097;28;20268;-84
2022/01/28 04:33:40;;;;;;;5.82;2.03;;;3.90;99.90;;;;;;5077018;28;20287;-84
2022/01/28 04:36:10;;;;;;;3.55;1.52;;;3.90;99.90;;;;;;5096908;28;20265;-83
2022/01/28 04:38:56;;;;;;;2.10;2.00;;;3.90;99.90;;;;;;5102291;28;20198;-86
2022/01/28 04:41:33;;;;;;;4.72;1.70;;;4.10;99.90;;;;;;5087591;28;20205;-85
2022/01/28 04:44:10;;;;;;;2.85;1.50;;;4.10;99.90;;;;;;5074780;28;20368;-85
2022/01/28 04:46:45;;;;;;;2.85;2.05;;;4.20;99.90;;;;;;5096945;28;20201;-85
2022/01/28 04:49:24;;;;;;;14.02;2.38;;;4.10;99.90;;;;;;5086881;28;20257;-85
2022/01/28 04:52:31;;;;;;;3.30;1.77;;;4.20;99.90;;;;;;5086708;28;20202;-84
2022/01/28 04:55:03;;;;;;;3.83;1.25;;;4.20;99.90;;;;;;5087537;28;20202;-83
2022/01/28 05:28:52;;;;;;;0.95;0.77;;;3.60;99.90;;;;;;5087412;28;20197;-84
2022/01/28 05:31:20;;;;;;;4.22;1.13;;;3.60;99.90;;;;;;5075776;28;20197;-83
2022/01/28 05:33:49;;;;;;;4.65;1.58;;;3.60;99.90;;;;;;5110980;28;20223;-84
2022/01/28 05:36:17;;;;;;;2.58;1.25;;;3.60;99.90;;;;;;5105430;28;20494;-82
2022/01/28 05:38:44;;;;;;;3.70;1.60;;;3.60;99.90;;;;;;5075725;28;20200;-82
2022/01/28 05:41:12;;;;;;;4.80;2.25;;;3.70;99.90;;;;;;5084865;28;20438;-85
2022/01/28 05:43:39;;;;;;;5.72;2.58;;;3.80;99.90;;;;;;5120587;28;20292;-86
2022/01/28 05:46:08;;;;;;;4.20;1.95;;;3.80;99.90;;;;;;5094139;28;20231;-84
2022/01/28 05:48:35;;;;;;;1.63;1.10;;;3.90;99.90;;;;;;5104691;28;20196;-85
2022/01/28 05:51:02;;;;;;;6.93;1.90;;;3.90;99.90;;;;;;5105329;28;20222;-86
2022/01/28 05:53:30;;;;;;;8.18;2.45;;;4.10;99.90;;;;;;5088589;28;20242;-85
2022/01/28 05:55:58;;;;;;;5.82;2.15;;;4.10;99.90;;;;;;5105446;28;20268;-85
2022/01/28 05:58:25;;;;;;;5.15;1.52;;;4.20;99.90;;;;;;5087146;28;20195;-84
2022/01/28 06:00:53;;;;;;;7.47;2.58;;;4.30;99.90;;;;;;5087352;28;20213;-84
2022/01/28 06:03:21;;;;;;;3.92;1.40;;;4.30;99.90;;;;;;5087313;28;20229;-87
2022/01/28 06:05:49;;;;;;;3.25;1.65;;;4.30;99.90;;;;;;5105515;28;20212;-84
2022/01/28 06:08:20;;;;;;;6.00;1.35;;;4.30;99.90;;;;;;5105029;28;20236;-86
2022/01/28 06:10:47;;;;;;;2.78;1.30;;;4.40;99.90;;;;;;5087275;28;20272;-85
2022/01/28 06:13:15;;;;;;;5.03;2.40;;;4.40;99.90;;;;;;5087713;28;20221;-85
2022/01/28 06:15:43;;;;;;;3.58;1.40;;;4.30;99.90;;;;;;5087447;28;20193;-87
2022/01/28 06:18:12;;;;;;;1.23;0.70;;;4.30;99.90;;;;;;5087352;28;20232;-86
2022/01/28 06:20:40;;;;;;;5.38;1.50;;;4.30;99.90;;;;;;5104618;28;20268;-85
2022/01/28 06:23:12;;;;;;;5.88;1.75;;;4.40;99.90;;;;;;5104632;28;20208;-84
2022/01/28 06:25:39;;;;;;;10.25;1.60;;;4.30;99.90;;;;;;5102388;28;20255;-86
2022/01/28 06:28:06;;;;;;;2.72;1.05;;;4.40;99.90;;;;;;5084709;28;20301;-85
2022/01/28 06:30:34;;;;;;;6.65;1.75;;;4.40;99.90;;;;;;5085263;28;20206;-85
2022/01/28 06:33:01;;;;;;;7.32;1.67;;;4.40;99.90;;;;;;5085097;28;20330;-85
2022/01/28 06:35:29;;;;;;;5.35;1.13;;;4.30;99.90;;;;;;5088971;28;20206;-83
2022/01/28 06:37:56;;;;;;;3.53;1.27;;;4.40;99.90;;;;;;5089267;28;20256;-86
2022/01/28 06:40:23;;;;;;;6.00;1.40;;;4.40;99.90;;;;;;5088310;28;20269;-86
2022/01/28 06:42:51;;;;;;;1.80;1.30;;;4.40;99.90;;;;;;5088495;28;20269;-85
2022/01/28 06:45:18;;;;;;;2.03;1.10;;;4.40;99.90;;;;;;5088199;28;20236;-85
2022/01/28 06:47:46;;;;;;;5.97;1.35;;;4.40;99.90;;;;;;5071381;28;20271;-86
2022/01/28 06:50:13;;;;;;;5.38;1.70;;;4.40;99.90;;;;;;5070793;28;20235;-88
2022/01/28 06:52:42;;;;;;;8.93;1.25;;;4.30;99.90;;;;;;5088419;28;20296;-85
2022/01/28 06:55:12;;;;;;;7.43;1.65;;;4.30;99.90;;;;;;5084322;28;20243;-84
2022/01/28 06:57:40;;;;;;;2.05;1.85;;;4.40;99.90;;;;;;5108250;28;20233;-84
2022/01/28 07:00:09;;;;;;;2.05;1.45;;;4.30;99.90;;;;;;5109000;28;20224;-84
2022/01/28 07:02:37;;;;;;;3.20;1.20;;;4.30;99.90;;;;;;5092128;28;20197;-86
2022/01/28 07:05:06;;;;;;;5.25;1.85;;;4.40;99.90;;;;;;5110617;28;20201;-86
2022/01/28 07:07:34;;;;;;;7.57;1.30;;;4.40;99.90;;;;;;5109585;28;20185;-84
2022/01/28 07:10:01;;;;;;;4.10;2.03;;;4.40;99.90;;;;;;5090316;28;20517;-85
2022/01/28 07:12:28;;;;;;;4.72;1.73;;;4.40;99.90;;;;;;5090782;28;20257;-86
2022/01/28 07:14:56;;;;;;;3.80;1.38;;;4.40;99.90;;;;;;5109362;28;20197;-86
2022/01/28 07:17:24;;;;;;;1.98;1.35;;;4.40;99.90;;;;;;5090778;28;20510;-87
2022/01/28 07:19:52;;;;;;;8.13;2.33;;;4.40;99.90;;;;;;5090800;28;20235;-86
2022/01/28 07:22:19;;;;;;;3.55;3.05;;;4.40;99.90;;;;;;5107738;28;20197;-85
2022/01/28 07:24:47;;;;;;;5.25;1.38;;;4.50;99.90;;;;;;5089652;28;20202;-82
2022/01/28 07:27:19;;;;;;;5.53;1.88;;;4.50;99.90;;;;;;5090173;28;20266;-83
2022/01/28 07:29:48;;;;;;;9.23;4.32;;;4.50;99.90;;;;;;5089693;28;20515;-86
2022/01/28 07:32:15;;;;;;;2.10;1.30;;;4.60;99.90;;;;;;5107574;28;20265;-84
2022/01/28 07:34:43;;;;;;;10.63;1.80;;;4.60;99.90;;;;;;5106897;28;20280;-86
2022/01/28 07:37:11;;;;;;;6.38;1.55;;;4.70;99.90;;;;;;5107372;28;20276;-82
2022/01/28 07:39:39;;;;;;;5.85;1.90;;;4.70;99.90;;;;;;5107442;28;20491;-85
2022/01/28 07:42:07;;;;;;;4.40;1.73;;;4.80;99.90;;;;;;5107276;28;20202;-88
2022/01/28 07:44:35;;;;;;;7.95;1.63;;;4.80;99.90;;;;;;5106759;28;20198;-85
2022/01/28 07:47:04;;;;;;;5.43;2.25;;;4.80;99.90;;;;;;5089262;28;20241;-88
2022/01/28 07:49:32;;;;;;;4.90;1.48;;;4.70;99.90;;;;;;5089766;28;20228;-83
2022/01/28 07:51:59;;;;;;;3.72;2.30;;;4.80;99.90;;;;;;5106466;28;20201;-84
2022/01/28 07:54:27;;;;;;;4.20;1.50;;;4.70;99.90;;;;;;5088967;28;20230;-86
2022/01/28 07:56:54;;;;;;;4.00;1.92;;;4.70;99.90;;;;;;5106868;28;20247;-85
2022/01/28 07:59:22;;;;;;;1.25;0.90;;;4.70;99.90;;;;;;5107083;28;20200;-85
2022/01/28 08:01:49;;;;;;;8.90;1.75;;;4.80;99.90;;;;;;5106736;28;20201;-85
2022/01/28 08:04:18;;;;;;;10.68;4.10;;;4.80;99.90;;;;;;5107060;28;20216;-84
2022/01/28 08:06:45;;;;;;;8.38;2.50;;;4.80;99.90;;;;;;5106662;28;20494;-86
2022/01/28 08:09:13;;;;;;;7.22;1.65;;;4.70;99.90;;;;;;5088467;28;20200;-87
2022/01/28 08:11:40;;;;;;;6.22;1.90;;;4.70;99.90;;;;;;5088825;28;20380;-87
2022/01/28 08:14:09;;;;;;;5.03;1.77;;;4.80;99.90;;;;;;5088209;28;20407;-83
2022/01/28 08:16:36;;;;;;;5.03;1.85;;;4.70;99.90;;;;;;5088490;28;20197;-87
2022/01/28 08:19:04;;;;;;;8.52;2.33;;;4.70;99.90;;;;;;5088142;28;20205;-83
2022/01/28 08:21:32;;;;;;;7.18;3.67;;;4.70;99.90;;;;;;5105384;28;20206;-86
2022/01/28 08:23:59;;;;;;;4.55;1.60;;;4.70;99.90;;;;;;5105333;28;20202;-85
2022/01/28 08:26:26;;;;;;;5.35;1.40;;;4.70;99.90;;;;;;5105490;28;20194;-86
2022/01/28 08:28:53;;;;;;;4.93;1.52;;;4.70;99.90;;;;;;5105221;28;20194;-85
2022/01/28 08:31:21;;;;;;;9.38;3.55;;;4.70;99.90;;;;;;5087460;28;20231;-83
2022/01/28 08:33:49;;;;;;;3.72;1.88;;;4.70;99.90;;;;;;5087664;28;20217;-82
2022/01/28 08:36:19;;;;;;;2.35;1.58;;;4.60;99.90;;;;;;5104117;28;20563;-82
2022/01/28 08:38:49;;;;;;;8.63;1.50;;;4.60;99.90;;;;;;5087129;28;20197;-83
2022/01/28 08:41:16;;;;;;;3.55;1.88;;;4.60;99.90;;;;;;5105767;28;20232;-84
2022/01/28 08:43:45;;;;;;;2.20;1.50;;;4.60;99.90;;;;;;5088244;28;20383;-86
2022/01/28 08:46:12;;;;;;;7.15;2.08;;;4.60;99.90;;;;;;5088799;28;20235;-87
2022/01/28 08:48:40;;;;;;;5.22;1.98;;;4.60;99.90;;;;;;5088159;28;20232;-85
2022/01/28 08:51:08;;;;;;;6.43;2.08;;;4.50;99.90;;;;;;5088630;28;20347;-86
2022/01/28 08:53:38;;;;;;;11.35;2.08;;;4.50;99.90;;;;;;5105740;28;20267;-84
2022/01/28 08:56:06;;;;;;;3.50;2.20;;;4.60;99.90;;;;;;5087783;28;20189;-83
2022/01/28 08:58:34;;;;;;;3.22;2.70;;;4.60;99.90;;;;;;5105859;28;20243;-85
2022/01/28 09:01:02;;;;;;;3.92;1.75;;;4.70;99.90;;;;;;5106007;28;20261;-86
2022/01/28 09:03:32;;;;;;;4.45;1.50;;;4.80;99.90;;;;;;5106250;28;20201;-84
2022/01/28 09:06:00;;;;;;;5.53;2.33;;;4.90;99.90;;;;;;5088026;28;20403;-85
2022/01/28 09:08:27;;;;;;;5.38;2.17;;;4.90;99.90;;;;;;5105391;28;20201;-85
2022/01/28 09:11:08;;;;;;;10.05;2.30;;;4.90;99.90;;;;;;5087733;28;20190;-85
2022/01/28 09:13:38;;;;;;;6.38;3.35;;;5.00;99.90;;;;;;5105353;28;20210;-83
2022/01/28 09:16:05;;;;;;;7.68;2.05;;;5.00;99.90;;;;;;5105655;28;20200;-88
2022/01/28 09:18:33;;;;;;;3.40;2.05;;;5.00;99.90;;;;;;5105987;28;20270;-86
2022/01/28 09:21:00;;;;;;;2.88;1.65;;;5.10;99.90;;;;;;5088267;28;20417;-85
2022/01/28 09:23:27;;;;;;;5.00;1.70;;;5.10;99.90;;;;;;5105576;28;20198;-85
2022/01/28 09:25:55;;;;;;;7.10;1.80;;;5.10;99.90;;;;;;5088497;28;20198;-84
2022/01/28 09:28:22;;;;;;;2.88;1.40;;;5.10;99.90;;;;;;5088313;28;20220;-85
2022/01/28 09:30:51;;;;;;;3.20;1.80;;;5.20;99.90;;;;;;5088335;28;20208;-86
2022/01/28 09:33:19;;;;;;;6.00;2.17;;;5.20;99.90;;;;;;5088102;28;20222;-84
2022/01/28 09:35:47;;;;;;;1.35;0.90;;;5.20;99.90;;;;;;5087947;28;20213;-84
2022/01/28 09:38:14;;;;;;;5.90;2.00;;;5.10;99.90;;;;;;5105686;28;20201;-83
2022/01/28 09:40:43;;;;;;;8.07;1.95;;;5.10;99.90;;;;;;5088154;28;20470;-87
2022/01/28 09:43:11;;;;;;;3.65;2.03;;;5.10;99.90;;;;;;5087889;28;20262;-84
2022/01/28 09:45:39;;;;;;;4.63;1.70;;;5.20;99.90;;;;;;5087817;28;20197;-86
2022/01/28 09:48:07;;;;;;;9.32;1.80;;;5.20;99.90;;;;;;5099613;28;20247;-85
2022/01/28 09:50:34;;;;;;;1.15;1.05;;;5.20;99.90;;;;;;5067572;28;20214;-83
2022/01/28 09:53:03;;;;;;;3.47;1.70;;;5.20;99.90;;;;;;5084721;28;20195;-85
2022/01/28 09:55:31;;;;;;;10.90;1.65;;;5.20;99.90;;;;;;5067241;28;20239;-83
2022/01/28 09:58:00;;;;;;;9.55;2.45;;;5.30;99.90;;;;;;5066693;28;20425;-85
2022/01/28 10:00:30;;;;;;;6.43;2.67;;;5.30;99.90;;;;;;5066964;28;20193;-85
2022/01/28 10:02:59;;;;;;;3.03;1.45;;;5.40;99.90;;;;;;5066968;28;20195;-85
2022/01/28 10:05:35;;;;;;;6.25;2.15;;;5.50;99.90;;;;;;5084761;28;20218;-84
2022/01/28 10:08:05;;;;;;;4.13;2.17;;;5.50;99.90;;;;;;5085414;28;20202;-86
2022/01/28 10:11:03;;;;;;;13.90;2.50;;;5.50;99.90;;;;;;5089720;28;20301;-85
2022/01/28 10:13:45;;;;;;;4.72;1.42;;;5.40;99.90;;;;;;5089338;28;20413;-84
2022/01/28 10:16:15;;;;;;;2.67;1.98;;;5.40;99.90;;;;;;5089075;28;20195;-85
2022/01/28 10:18:52;;;;;;;4.72;1.75;;;5.40;99.90;;;;;;5088431;28;20204;-84
2022/01/28 10:21:30;;;;;;;4.55;1.65;;;5.40;99.90;;;;;;5071822;28;20202;-85
2022/01/28 10:24:08;;;;;;;2.78;1.92;;;5.40;99.90;;;;;;5071339;28;20225;-85
2022/01/28 10:26:45;;;;;;;2.90;1.73;;;5.40;99.90;;;;;;5071572;28;20274;-85
2022/01/28 10:29:23;;;;;;;13.73;3.75;;;5.30;99.90;;;;;;5071235;28;20571;-86
2022/01/28 10:31:54;;;;;;;4.40;1.88;;;5.30;99.90;;;;;;5088583;28;20201;-87
2022/01/28 10:34:37;;;;;;;2.70;1.33;;;5.30;99.90;;;;;;5071304;28;20241;-86
2022/01/28 10:37:08;;;;;;;6.38;1.85;;;5.10;99.90;;;;;;5070752;28;20195;-84
2022/01/28 10:39:46;;;;;;;2.25;1.45;;;5.00;99.90;;;;;;5087847;28;20257;-85
2022/01/28 10:42:38;;;;;;;2.45;1.58;;;4.90;99.90;;;;;;5088395;28;20202;-86
2022/01/28 10:45:12;;;;;;;5.40;1.60;;;4.90;99.90;;;;;;5088724;28;20560;-86
2022/01/28 10:47:39;;;;;;;4.63;3.08;;;4.90;99.90;;;;;;5071618;28;20220;-85
2022/01/28 10:50:30;;;;;;;5.90;2.40;;;4.90;99.90;;;;;;5088634;28;20563;-86
2022/01/28 10:53:00;;;;;;;2.95;1.90;;;4.80;99.90;;;;;;5088632;28;20449;-86
2022/01/28 10:55:30;;;;;;;3.05;1.63;;;4.90;99.90;;;;;;5070372;28;20218;-86
2022/01/28 10:58:18;;;;;;;7.18;3.22;;;5.00;99.90;;;;;;5069953;28;20231;-85
2022/01/28 11:00:47;;;;;;;4.80;1.50;;;5.10;99.90;;;;;;5087587;28;20202;-87
2022/01/28 11:03:17;;;;;;;6.15;2.05;;;5.20;99.90;;;;;;5069480;28;20267;-86
2022/01/28 11:05:45;;;;;;;7.32;2.10;;;5.20;99.90;;;;;;5087575;28;20203;-85
2022/01/28 11:08:14;;;;;;;7.30;2.63;;;5.20;99.90;;;;;;5087338;28;20519;-87
2022/01/28 11:10:43;;;;;;;4.75;3.28;;;5.20;99.90;;;;;;5087500;28;20193;-86
2022/01/28 11:13:10;;;;;;;6.70;2.40;;;5.20;99.90;;;;;;5070191;28;20191;-85
2022/01/28 11:15:38;;;;;;;6.32;2.40;;;5.30;99.90;;;;;;5087276;28;20294;-86
2022/01/28 11:18:09;;;;;;;7.10;2.13;;;5.40;99.90;;;;;;5088167;28;20208;-84
2022/01/28 11:20:37;;;;;;;7.63;2.95;;;5.40;99.90;;;;;;5088001;28;20237;-85
2022/01/28 11:23:11;;;;;;;7.00;2.45;;;5.40;99.90;;;;;;5087522;28;20195;-87
2022/01/28 11:25:57;;;;;;;5.30;2.33;;;5.50;99.90;;;;;;5087883;28;20197;-86
2022/01/28 11:28:44;;;;;;;6.85;2.72;;;5.50;99.90;;;;;;5074547;28;20413;-87
2022/01/28 11:31:15;;;;;;;5.22;2.47;;;5.50;99.90;;;;;;5096379;28;20273;-85
2022/01/28 11:33:49;;;;;;;10.93;2.40;;;5.60;99.90;;;;;;5086221;28;20222;-85
2022/01/28 11:36:35;;;;;;;6.35;2.70;;;5.60;99.90;;;;;;5094540;28;20214;-88
2022/01/28 11:39:26;;;;;;;4.20;1.92;;;5.70;99.90;;;;;;5091559;28;20243;-90
2022/01/28 11:42:08;;;;;;;16.20;3.83;;;5.70;99.90;;;;;;5078603;28;20425;-84
2022/01/28 11:44:51;;;;;;;8.00;2.22;;;5.70;99.90;;;;;;5092189;28;20205;-86
2022/01/28 11:47:53;;;;;;;5.05;2.63;;;5.80;99.90;;;;;;5097342;28;20204;-86
2022/01/28 11:50:24;;;;;;;1.27;1.17;;;6.00;99.90;;;;;;5105326;28;20197;-88
2022/01/28 11:52:54;;;;;;;7.82;2.30;;;6.00;99.90;;;;;;5106627;28;20269;-87
2022/01/28 11:55:23;;;;;;;8.07;3.47;;;6.00;99.90;;;;;;5110842;28;20387;-87
2022/01/28 11:58:08;;;;;;;2.10;1.80;;;6.00;99.90;;;;;;5127858;28;20596;-88
2022/01/28 12:00:44;;;;;;;6.32;2.22;;;6.00;99.90;;;;;;5128170;28;20200;-88
2022/01/28 12:03:28;;;;;;;3.40;2.13;;;6.00;99.90;;;;;;5110546;28;20193;-85
2022/01/28 12:05:58;;;;;;;6.43;1.95;;;5.90;99.90;;;;;;5128020;28;20227;-86
2022/01/28 12:08:30;;;;;;;9.32;2.90;;;5.90;99.90;;;;;;5109827;28;20204;-85
2022/01/28 12:11:01;;;;;;;4.55;2.45;;;5.90;99.90;;;;;;5110385;28;20294;-87
2022/01/28 12:14:02;;;;;;;7.47;3.35;;;5.90;99.90;;;;;;5127965;28;20196;-90
2022/01/28 12:16:35;;;;;;;11.45;2.35;;;5.80;99.90;;;;;;5110154;28;20307;-87
2022/01/28 12:19:18;;;;;;;11.40;2.95;;;5.80;99.90;;;;;;5118782;28;20197;-87
2022/01/28 12:22:24;;;;;;;5.90;2.33;;;5.80;99.90;;;;;;5089320;28;20697;-88
2022/01/28 12:24:52;;;;;;;9.13;2.40;;;5.90;99.90;;;;;;5004592;28;20202;-86
2022/01/28 12:27:20;;;;;;;8.30;2.90;;;5.90;99.90;;;;;;4988386;28;20406;-85
2022/01/28 12:29:50;;;;;;;8.32;2.28;;;5.90;99.90;;;;;;5038524;28;20434;-85
2022/01/28 12:32:25;;;;;;;4.70;1.95;;;5.80;99.90;;;;;;5105814;28;20190;-87
2022/01/28 12:34:59;;;;;;;6.65;2.05;;;5.90;99.90;;;;;;5090281;28;20214;-87
2022/01/28 12:37:32;;;;;;;5.20;2.10;;;5.90;99.90;;;;;;5088844;28;20190;-88
2022/01/28 12:40:05;;;;;;;5.47;2.05;;;5.90;99.90;;;;;;5089039;28;20308;-85
2022/01/28 12:42:39;;;;;;;8.43;1.85;;;6.00;99.90;;;;;;5106552;28;20510;-87
2022/01/28 12:45:07;;;;;;;7.28;2.20;;;5.90;99.90;;;;;;5088646;28;20205;-86
2022/01/28 12:47:36;;;;;;;4.88;2.05;;;5.90;99.90;;;;;;5105955;28;20198;-86
2022/01/28 12:50:04;;;;;;;3.47;1.40;;;5.90;99.90;;;;;;5105631;28;20409;-86
2022/01/28 12:52:33;;;;;;;5.65;1.60;;;5.90;99.90;;;;;;5086960;28;20208;-86
2022/01/28 12:55:02;;;;;;;5.13;2.35;;;5.90;99.90;;;;;;5087721;28;20210;-85
2022/01/28 12:57:30;;;;;;;2.63;1.40;;;5.90;99.90;;;;;;5087801;28;20217;-87
2022/01/28 12:59:57;;;;;;;2.75;2.25;;;5.90;99.90;;;;;;5105162;28;20197;-87
2022/01/28 13:02:32;;;;;;;10.57;2.63;;;5.90;99.90;;;;;;5084902;28;20261;-86
2022/01/28 13:10:34;;;;;;;3.42;2.30;;;6.00;99.90;;;;;;5102787;28;20210;-88
2022/01/28 13:13:09;;;;;;;7.22;2.25;;;6.00;99.90;;;;;;5080049;28;20258;-86
2022/01/28 13:15:38;;;;;;;4.60;1.40;;;5.90;99.90;;;;;;5078138;28;20289;-89
2022/01/28 13:18:08;;;;;;;5.38;1.83;;;5.90;99.90;;;;;;5109310;28;20195;-87
2022/01/28 13:20:40;;;;;;;2.17;1.20;;;5.90;99.90;;;;;;5102290;28;20203;-89
2022/01/28 13:23:10;;;;;;;2.53;1.38;;;5.80;99.90;;;;;;5079495;28;20244;-88
2022/01/28 13:25:39;;;;;;;9.20;2.67;;;5.80;99.90;;;;;;5098134;28;20225;-86
2022/01/28 13:28:14;;;;;;;6.97;2.10;;;5.70;99.90;;;;;;5086182;28;20378;-86
2022/01/28 13:30:56;;;;;;;4.82;2.15;;;5.70;99.90;;;;;;5106442;28;20493;-87
2022/01/28 13:33:29;;;;;;;7.68;2.22;;;5.70;99.90;;;;;;5126387;28;20250;-86
2022/01/28 13:35:58;;;;;;;2.35;1.50;;;5.70;99.90;;;;;;5114744;28;20222;-87
2022/01/28 13:38:35;;;;;;;5.35;1.85;;;5.70;99.90;;;;;;5081739;28;20264;-86
2022/01/28 13:41:25;;;;;;;5.00;1.85;;;5.60;99.90;;;;;;5109532;28;20191;-87
2022/01/28 13:43:54;;;;;;;3.55;2.15;;;5.60;99.90;;;;;;5128595;28;20211;-89
2022/01/28 13:46:22;;;;;;;10.35;2.35;;;5.50;99.90;;;;;;5122577;28;20455;-87
2022/01/28 13:48:49;;;;;;;4.57;1.75;;;5.50;99.90;;;;;;5096903;28;20236;-87
2022/01/28 13:51:21;;;;;;;3.53;1.80;;;5.50;99.90;;;;;;5099268;28;20216;-87
2022/01/28 13:56:30;;;;;;;2.80;1.27;;;5.40;99.90;;;;;;5105871;28;20200;-88
2022/01/28 13:58:59;;;;;;;5.68;2.35;;;5.40;99.90;;;;;;5098961;28;20206;-86
2022/01/28 14:01:27;;;;;;;3.45;1.90;;;5.30;99.90;;;;;;5105877;28;20198;-87
2022/01/28 14:04:00;;;;;;;4.38;2.40;;;5.20;99.90;;;;;;5130527;28;20218;-87
2022/01/28 14:06:30;;;;;;;5.53;2.20;;;5.30;99.90;;;;;;5111807;28;20264;-85
2022/01/28 14:09:06;;;;;;;4.55;2.90;;;5.20;99.90;;;;;;5098222;28;20354;-87
2022/01/28 14:11:40;;;;;;;5.03;1.63;;;5.20;99.90;;;;;;5094763;28;20205;-89
2022/01/28 14:14:29;;;;;;;5.40;2.15;;;5.30;99.90;;;;;;5090580;28;20424;-86
2022/01/28 14:17:08;;;;;;;2.47;2.28;;;5.30;99.90;;;;;;5093420;28;20178;-85
2022/01/28 14:19:38;;;;;;;3.17;2.70;;;5.30;99.90;;;;;;5092257;28;20500;-87
2022/01/28 14:22:10;;;;;;;3.35;1.70;;;5.20;99.90;;;;;;5093326;28;20201;-86
2022/01/28 14:24:53;;;;;;;6.10;2.33;;;5.20;99.90;;;;;;5110186;28;20193;-88
2022/01/28 14:30:02;;;;;;;6.38;2.22;;;5.30;99.90;;;;;;5129393;28;20201;-87
2022/01/28 14:32:30;;;;;;;9.38;2.25;;;5.30;99.90;;;;;;5110989;28;20482;-88
2022/01/28 14:34:58;;;;;;;7.35;2.67;;;5.20;99.90;;;;;;5111273;28;20283;-89
2022/01/28 14:37:31;;;;;;;12.20;2.20;;;5.20;99.90;;;;;;5129243;28;20196;-88
2022/01/28 14:39:58;;;;;;;5.28;1.90;;;5.20;99.90;;;;;;5129967;28;20188;-83
2022/01/28 14:42:26;;;;;;;4.43;2.45;;;5.10;99.90;;;;;;5111111;28;20204;-85
2022/01/28 14:44:54;;;;;;;6.95;3.05;;;5.10;99.90;;;;;;5129842;28;20208;-87
2022/01/28 14:47:21;;;;;;;6.18;2.42;;;5.10;99.90;;;;;;5111998;28;20189;-85